Time;durP1;ratioP1;P1;durP2;ratioP2;P2;SDS_P1;SDS_P2;PMS_P1;PMS_P2;Temp;Humidity;BMP_temperature;BMP_pressure;BME280_temperature;BME280_humidity;BME280_pressure;Samples;Min_cycle;Max_cycle;Signal;HPM_P1;HPM_P2
2024/01/08 00:03:26;;;;;;;4.68;3.35;;;;;;;-144.32;100.00;68061.97;10432251;28;20056;-73
2024/01/08 00:08:27;;;;;;;5.15;3.60;;;;;;;-144.32;100.00;68061.97;10415612;28;20072;-74
2024/01/08 00:13:28;;;;;;;5.43;3.70;;;;;;;-144.32;100.00;68061.97;10437021;28;20051;-74
2024/01/08 00:18:29;;;;;;;4.13;3.15;;;;;;;-144.32;100.00;68061.97;10458498;28;20049;-73
2024/01/08 00:23:34;;;;;;;4.53;3.33;;;;;;;-144.32;100.00;68061.97;10479079;28;20045;-74
2024/01/08 00:28:34;;;;;;;5.43;4.50;;;;;;;-144.32;100.00;68061.97;10475038;28;20048;-74
2024/01/08 00:33:35;;;;;;;5.60;4.18;;;;;;;-144.32;100.00;68061.97;10452669;28;20041;-76
2024/01/08 00:38:37;;;;;;;5.20;3.80;;;;;;;-144.32;100.00;68061.97;10462393;28;20059;-76
2024/01/08 00:43:38;;;;;;;5.40;3.70;;;;;;;-144.32;100.00;68061.97;10450431;28;20075;-76
2024/01/08 00:48:39;;;;;;;6.20;3.78;;;;;;;-144.32;100.00;68061.97;10480386;28;20083;-75
2024/01/08 00:53:40;;;;;;;5.43;3.65;;;;;;;-144.32;100.00;68061.97;10432158;28;20053;-74
2024/01/08 00:58:43;;;;;;;5.53;3.22;;;;;;;-144.32;100.00;68061.97;10448908;28;20508;-75
2024/01/08 01:03:43;;;;;;;4.87;3.23;;;;;;;-144.32;100.00;68061.97;10429904;28;20637;-76
2024/01/08 01:08:44;;;;;;;3.63;3.22;;;;;;;-144.32;100.00;68061.97;10447037;28;20117;-75
2024/01/08 01:13:44;;;;;;;4.75;3.25;;;;;;;-144.32;100.00;68061.97;10441160;28;20064;-75
2024/01/08 01:18:46;;;;;;;4.38;3.80;;;;;;;-144.32;100.00;68061.97;10444766;28;20052;-76
2024/01/08 01:23:47;;;;;;;5.32;3.17;;;;;;;-144.32;100.00;68061.97;10445657;28;20059;-75
2024/01/08 01:28:49;;;;;;;4.50;3.47;;;;;;;-144.32;100.00;68061.97;10443721;28;20401;-76
2024/01/08 01:33:50;;;;;;;5.13;3.40;;;;;;;-144.32;100.00;68061.97;10421475;28;20056;-74
2024/01/08 01:38:50;;;;;;;6.18;3.17;;;;;;;-144.32;100.00;68061.97;10423862;28;21271;-73
2024/01/08 01:43:51;;;;;;;4.65;3.50;;;;;;;-144.32;100.00;68061.97;10409688;28;20066;-74
2024/01/08 01:48:52;;;;;;;5.03;3.30;;;;;;;-144.32;100.00;68061.97;10443357;28;20076;-74
2024/01/08 01:53:53;;;;;;;6.28;3.28;;;;;;;-144.32;100.00;68061.97;10421505;28;20144;-74
2024/01/08 01:58:56;;;;;;;3.95;3.17;;;;;;;-144.32;100.00;68061.97;10439385;28;20083;-75
2024/01/08 02:03:57;;;;;;;;;;;;;;;-144.32;100.00;68061.97;10442038;28;20041;-75
2024/01/08 02:08:57;;;;;;;4.18;3.30;;;;;;;-144.32;100.00;68061.97;10421789;28;19927;-73
2024/01/08 02:13:58;;;;;;;4.10;2.92;;;;;;;-144.32;100.00;68061.97;10419786;28;20163;-74
2024/01/08 02:18:59;;;;;;;5.65;3.40;;;;;;;-144.32;100.00;68061.97;10436866;28;20052;-73
2024/01/08 02:24:00;;;;;;;4.97;3.05;;;;;;;-144.32;100.00;68061.97;10416123;28;20056;-74
2024/01/08 02:29:01;;;;;;;5.30;3.40;;;;;;;-144.32;100.00;68061.97;10431054;28;20676;-75
2024/01/08 02:34:02;;;;;;;5.32;3.30;;;;;;;-144.32;100.00;68061.97;10433826;28;20037;-74
2024/01/08 02:39:02;;;;;;;5.07;3.15;;;;;;;-144.32;100.00;68061.97;10448911;28;20048;-73
2024/01/08 02:44:03;;;;;;;4.72;2.88;;;;;;;-144.32;100.00;68061.97;10459260;28;20056;-74
2024/01/08 02:49:04;;;;;;;4.05;2.88;;;;;;;-144.32;100.00;68061.97;10451104;28;20124;-74
2024/01/08 02:54:05;;;;;;;4.00;3.38;;;;;;;-144.32;100.00;68061.97;10473181;28;20071;-74
2024/01/08 02:59:06;;;;;;;5.88;3.17;;;;;;;-144.32;100.00;68061.97;10467716;28;20031;-74
2024/01/08 03:04:07;;;;;;;4.93;3.13;;;;;;;-144.32;100.00;68061.97;10449408;28;20121;-74
2024/01/08 03:09:07;;;;;;;4.28;3.30;;;;;;;-144.32;100.00;68061.97;10465663;28;20049;-73
2024/01/08 03:14:08;;;;;;;5.05;3.25;;;;;;;-144.32;100.00;68061.97;10469034;28;20101;-74
2024/01/08 03:19:08;;;;;;;5.85;3.55;;;;;;;-144.32;100.00;68061.97;10450132;28;20063;-73
2024/01/08 03:24:09;;;;;;;4.50;3.25;;;;;;;-144.32;100.00;68061.97;10467060;28;20097;-74
2024/01/08 03:29:10;;;;;;;4.88;3.38;;;;;;;-144.32;100.00;68061.97;10446310;28;20621;-74
2024/01/08 03:34:14;;;;;;;6.65;3.40;;;;;;;-144.32;100.00;68061.97;10473133;28;20048;-74
2024/01/08 03:39:16;;;;;;;4.20;3.15;;;;;;;-144.32;100.00;68061.97;10468591;28;20086;-74
2024/01/08 03:44:16;;;;;;;5.35;3.30;;;;;;;-144.32;100.00;68061.97;10456877;28;20783;-74
2024/01/08 03:49:17;;;;;;;5.57;3.40;;;;;;;-144.32;100.00;68061.97;10466880;28;20045;-74
2024/01/08 03:54:18;;;;;;;4.97;3.33;;;;;;;-144.32;100.00;68061.97;10433727;28;20338;-73
2024/01/08 03:59:18;;;;;;;5.85;3.13;;;;;;;-144.32;100.00;68061.97;10462929;28;20048;-74
2024/01/08 04:04:19;;;;;;;5.40;3.63;;;;;;;-144.32;100.00;68061.97;10501100;28;20045;-75
2024/01/08 04:09:19;;;;;;;6.25;3.60;;;;;;;-144.32;100.00;68061.97;10501846;28;20040;-74
2024/01/08 04:14:20;;;;;;;6.07;3.85;;;;;;;-144.32;100.00;68061.97;10444831;28;20068;-72
2024/01/08 04:19:23;;;;;;;5.63;3.45;;;;;;;-144.32;100.00;68061.97;10468773;28;20040;-72
2024/01/08 04:24:24;;;;;;;4.93;3.70;;;;;;;-144.32;100.00;68061.97;10472602;28;20044;-73
2024/01/08 04:29:25;;;;;;;5.05;3.95;;;;;;;-144.32;100.00;68061.97;10457130;28;20052;-73
2024/01/08 04:34:26;;;;;;;5.25;4.00;;;;;;;-144.32;100.00;68061.97;10453849;28;20045;-73
2024/01/08 04:39:26;;;;;;;4.45;3.40;;;;;;;-144.32;100.00;68061.97;10474255;28;20044;-73
2024/01/08 04:44:27;;;;;;;4.32;3.42;;;;;;;-144.32;100.00;68061.97;10432221;28;20044;-74
2024/01/08 04:49:27;;;;;;;4.28;3.45;;;;;;;-144.32;100.00;68061.97;10465541;28;20033;-73
2024/01/08 04:54:29;;;;;;;5.10;4.05;;;;;;;-144.32;100.00;68061.97;10472370;28;20065;-73
2024/01/08 04:59:31;;;;;;;5.68;3.63;;;;;;;-144.32;100.00;68061.97;10409144;28;20064;-73
2024/01/08 05:04:32;;;;;;;5.93;3.75;;;;;;;-144.32;100.00;68061.97;10473822;28;20104;-74
2024/01/08 05:09:34;;;;;;;6.68;4.00;;;;;;;-144.32;100.00;68061.97;10452095;28;20059;-74
2024/01/08 05:14:34;;;;;;;4.88;3.75;;;;;;;-144.32;100.00;68061.97;10467626;28;20040;-76
2024/01/08 05:19:36;;;;;;;5.50;3.70;;;;;;;-144.32;100.00;68061.97;10452192;28;20044;-77
2024/01/08 05:24:41;;;;;;;6.70;4.20;;;;;;;-144.32;100.00;68061.97;10475009;28;20165;-74
2024/01/08 05:29:41;;;;;;;5.57;3.83;;;;;;;-144.32;100.00;68061.97;10452108;28;20103;-74
2024/01/08 05:34:42;;;;;;;5.97;4.10;;;;;;;-144.32;100.00;68061.97;10504751;28;20020;-73
2024/01/08 05:39:43;;;;;;;7.35;3.97;;;;;;;-144.32;100.00;68061.97;10533127;28;21171;-76
2024/01/08 05:44:44;;;;;;;9.15;4.70;;;;;;;-144.32;100.00;68061.97;10495947;28;20055;-75
2024/01/08 05:49:44;;;;;;;6.03;4.38;;;;;;;-144.32;100.00;68061.97;10470357;28;20098;-75
2024/01/08 05:54:45;;;;;;;7.38;4.85;;;;;;;-144.32;100.00;68061.97;10468862;28;20086;-75
2024/01/08 05:59:48;;;;;;;6.75;4.18;;;;;;;-144.32;100.00;68061.97;10436212;28;20046;-75
2024/01/08 06:04:48;;;;;;;7.90;4.57;;;;;;;-144.32;100.00;68061.97;10473822;28;20049;-74
2024/01/08 06:09:49;;;;;;;6.80;4.25;;;;;;;-144.32;100.00;68061.97;10444513;28;20057;-74
2024/01/08 06:14:50;;;;;;;6.45;4.57;;;;;;;-144.32;100.00;68061.97;10449573;28;20044;-75
2024/01/08 06:19:51;;;;;;;6.30;4.95;;;;;;;-144.32;100.00;68061.97;10469733;28;20040;-76
2024/01/08 06:24:52;;;;;;;6.63;4.88;;;;;;;-144.32;100.00;68061.97;10436805;28;21109;-76
2024/01/08 06:29:53;;;;;;;6.65;5.20;;;;;;;-144.32;100.00;68061.97;10452216;28;20829;-75
2024/01/08 06:34:53;;;;;;;8.30;5.25;;;;;;;-144.32;100.00;68061.97;10452517;28;20044;-74
2024/01/08 06:39:54;;;;;;;7.35;4.97;;;;;;;-144.32;100.00;68061.97;10471767;28;20063;-75
2024/01/08 06:44:55;;;;;;;7.47;4.82;;;;;;;-144.32;100.00;68061.97;10460791;28;20484;-75
2024/01/08 06:49:55;;;;;;;6.95;5.43;;;;;;;-144.32;100.00;68061.97;10468361;28;20857;-76
2024/01/08 06:54:59;;;;;;;6.63;4.78;;;;;;;-144.32;100.00;68061.97;10454325;28;20082;-75
2024/01/08 06:59:59;;;;;;;9.52;5.80;;;;;;;-144.32;100.00;68061.97;10448083;28;20045;-75
2024/01/08 07:05:00;;;;;;;8.35;5.57;;;;;;;-144.32;100.00;68061.97;10450107;28;20052;-76
2024/01/08 07:10:03;;;;;;;9.02;5.93;;;;;;;-144.32;100.00;68061.97;10451036;28;20091;-75
2024/01/08 07:15:04;;;;;;;6.10;5.25;;;;;;;-144.32;100.00;68061.97;10450732;28;20044;-74
2024/01/08 07:20:07;;;;;;;8.48;5.68;;;;;;;-144.32;100.00;68061.97;10463572;28;20049;-76
2024/01/08 07:25:07;;;;;;;6.55;5.13;;;;;;;-144.32;100.00;68061.97;10525583;28;20097;-76
2024/01/08 07:30:11;;;;;;;8.90;5.60;;;;;;;-144.32;100.00;68061.97;10476866;28;20354;-74
2024/01/08 07:35:13;;;;;;;8.23;4.80;;;;;;;-144.32;100.00;68061.97;10472665;28;20037;-76
2024/01/08 07:40:14;;;;;;;5.75;3.92;;;;;;;-144.32;100.00;68061.97;10458976;28;20100;-74
2024/01/08 07:45:14;;;;;;;6.75;4.18;;;;;;;-144.32;100.00;68061.97;10468820;28;20049;-75
2024/01/08 07:50:15;;;;;;;6.13;3.85;;;;;;;-144.32;100.00;68061.97;10458703;28;20114;-73
2024/01/08 07:55:16;;;;;;;7.68;4.78;;;;;;;-144.32;100.00;68061.97;10469423;28;20067;-74
2024/01/08 08:00:17;;;;;;;7.65;4.57;;;;;;;-144.32;100.00;68061.97;10477372;28;20119;-75
2024/01/08 08:05:18;;;;;;;6.95;5.05;;;;;;;-144.32;100.00;68061.97;10455910;28;20420;-75
2024/01/08 08:10:18;;;;;;;8.43;4.28;;;;;;;-144.32;100.00;68061.97;10456763;28;20614;-75
2024/01/08 08:15:20;;;;;;;8.40;4.97;;;;;;;-144.32;100.00;68061.97;10463638;28;20051;-74
2024/01/08 08:20:21;;;;;;;6.95;4.60;;;;;;;-144.32;100.00;68061.97;10443740;28;20043;-75
2024/01/08 08:25:23;;;;;;;6.30;4.20;;;;;;;-144.32;100.00;68061.97;10483507;28;20467;-75
2024/01/08 08:30:24;;;;;;;7.30;4.53;;;;;;;-144.32;100.00;68061.97;10447385;28;20258;-74
2024/01/08 08:35:25;;;;;;;7.03;4.90;;;;;;;-144.32;100.00;68061.97;10455071;28;20045;-74
2024/01/08 08:40:25;;;;;;;9.27;5.03;;;;;;;-144.32;100.00;68061.97;10480044;28;20047;-75
2024/01/08 08:45:28;;;;;;;9.10;5.30;;;;;;;-144.32;100.00;68061.97;10474202;28;20487;-74
2024/01/08 08:50:29;;;;;;;8.40;5.00;;;;;;;-144.32;100.00;68061.97;10455448;28;20160;-75
2024/01/08 08:55:33;;;;;;;8.37;5.27;;;;;;;-144.32;100.00;68061.97;10476373;28;20535;-74
2024/01/08 09:00:34;;;;;;;9.37;5.27;;;;;;;-144.32;100.00;68061.97;10455565;28;20413;-75
2024/01/08 09:05:34;;;;;;;8.82;5.78;;;;;;;-144.32;100.00;68061.97;10455365;28;20295;-75
2024/01/08 09:10:36;;;;;;;10.93;5.97;;;;;;;-144.32;100.00;68061.97;10476793;28;20082;-75
2024/01/08 09:15:36;;;;;;;10.30;5.75;;;;;;;-144.32;100.00;68061.97;10470675;28;20563;-74
2024/01/08 09:20:37;;;;;;;10.68;5.70;;;;;;;-144.32;100.00;68061.97;10455884;28;20036;-75
2024/01/08 09:25:38;;;;;;;10.27;5.75;;;;;;;-144.32;100.00;68061.97;10454972;28;20060;-74
2024/01/08 09:30:38;;;;;;;7.90;5.45;;;;;;;-144.32;100.00;68061.97;10456402;28;20045;-74
2024/01/08 09:35:39;;;;;;;11.68;5.20;;;;;;;-144.32;100.00;68061.97;10471817;28;20048;-75
2024/01/08 09:40:43;;;;;;;14.05;6.43;;;;;;;-144.32;100.00;68061.97;10470994;28;20141;-74
2024/01/08 09:45:53;;;;;;;10.73;6.10;;;;;;;-144.32;100.00;68061.97;10469011;28;20066;-74
2024/01/08 09:50:54;;;;;;;8.25;5.10;;;;;;;-144.32;100.00;68061.97;10471755;28;20110;-73
2024/01/08 09:55:55;;;;;;;10.90;5.60;;;;;;;-144.32;100.00;68061.97;10446639;28;20058;-73
2024/01/08 10:00:55;;;;;;;11.13;5.75;;;;;;;-144.32;100.00;68061.97;10464823;28;20143;-75
2024/01/08 10:05:57;;;;;;;10.25;6.18;;;;;;;-144.32;100.00;68061.97;10470817;28;20485;-75
2024/01/08 23:21:45;;;;;;;27.92;13.32;;;;;;;-7.86;100.00;99609.38;10401654;27;2000026;-75
2024/01/08 23:26:46;;;;;;;24.00;12.93;;;;;;;-144.32;100.00;68061.97;10433827;28;20044;-75
2024/01/08 23:31:47;;;;;;;30.60;12.98;;;;;;;-144.32;100.00;68061.97;10452277;28;20045;-76
2024/01/08 23:36:48;;;;;;;29.45;13.77;;;;;;;-144.32;100.00;68061.97;10471432;28;20041;-76
2024/01/08 23:41:48;;;;;;;28.58;14.45;;;;;;;-144.32;100.00;68061.97;10408865;28;20045;-76
2024/01/08 23:46:49;;;;;;;30.85;13.68;;;;;;;-144.32;100.00;68061.97;10427256;28;20065;-76
2024/01/08 23:51:49;;;;;;;29.25;13.63;;;;;;;-144.32;100.00;68061.97;10429719;28;20140;-77
2024/01/08 23:56:50;;;;;;;28.90;13.75;;;;;;;-144.32;100.00;68061.97;10431141;28;20052;-77
